»·PEaware :: PAK1 KELP-KTUS

PAK1 :: KELP-KTUS

FLIGHT INFORMATION

Flight Status: Arrived
Operator: Unknown
More flights by this operator :: More flights under this callsign
Pilot: Daniel B. (44892)
Aircraft: BEECH AIRCRAFT A90-E90 KING AIR
(BE9L)
More flights by this aircraft type
Origin: KELP El Paso Intl
United States
Destination: KTUS Tucson Intl
United States
More flights between these airports :: More routes between these airports
Route: ELP J2 TUS
File this flight plan on PilotEdge
Remarks:
Altitude:
(Current/Filed)
18,000ft
Speed:
(Current/Filed)
260kts
Departed: 20-Aug-23 07:46 PM
Arrived: 20-Aug-23 09:04 PM
Distance/Time
Traveled:
233nm/1:17
Distance/Time
To Go:
Arrived

Flight Plot

Page will automatically refresh every two minutes.

Flight plan parsing failed; only flown route is shown


Map Options




Map Legend


Flown Route
Filed Route
Departure Airport
Arrival Airport
Navaid (VOR, NDB)
Fix

Horizontal Profiles

Position Reports

Time Latitude Longitude Heading Altitude Ground
Speed
20-Aug-23 19:37 31.798104 -106.374384 260 3946ft 0kts
20-Aug-23 19:37 31.798104 -106.374384 260 3946ft 0kts
20-Aug-23 19:39 31.797355 -106.378741 217 3940ft 25kts
20-Aug-23 19:40 31.794831 -106.381617 310 3941ft 4kts
20-Aug-23 19:41 31.797590 -106.387444 308 3927ft 33kts
20-Aug-23 19:42 31.801376 -106.393502 271 3921ft 26kts
20-Aug-23 19:42 31.801381 -106.399500 321 3915ft 0kts
20-Aug-23 19:43 31.801381 -106.399500 321 3915ft 0kts
20-Aug-23 19:45 31.801568 -106.399614 352 3915ft 8kts
20-Aug-23 19:46 31.816087 -106.380157 66 4519ft 109kts
20-Aug-23 19:46 31.828236 -106.351823 75 5894ft 118kts
20-Aug-23 19:47 31.846946 -106.312542 66 7117ft 160kts
20-Aug-23 19:48 31.868036 -106.268541 75 8703ft 160kts
20-Aug-23 19:49 31.894438 -106.236754 30 10778ft 146kts
20-Aug-23 19:51 31.932662 -106.265251 272 12384ft 157kts
20-Aug-23 19:51 31.934192 -106.309993 259 13340ft 165kts
20-Aug-23 19:52 31.930388 -106.363707 257 14624ft 170kts
20-Aug-23 19:53 31.923899 -106.416413 272 15973ft 171kts
20-Aug-23 19:54 31.930196 -106.472954 259 17055ft 175kts
20-Aug-23 19:55 31.931406 -106.531160 273 18026ft 187kts
20-Aug-23 19:56 31.933099 -106.590430 274 18868ft 191kts
20-Aug-23 19:57 31.933091 -106.660477 279 18260ft 242kts
20-Aug-23 19:58 31.942487 -106.736659 256 18290ft 223kts
20-Aug-23 19:59 31.924241 -106.807479 234 17952ft 224kts
20-Aug-23 20:00 31.919092 -106.883813 263 17955ft 246kts
20-Aug-23 20:01 31.919530 -106.967102 263 17988ft 260kts
20-Aug-23 20:02 31.919928 -107.053355 265 17993ft 266kts
20-Aug-23 20:03 31.920316 -107.140885 264 18013ft 270kts
20-Aug-23 20:04 31.920645 -107.229191 265 18000ft 269kts
20-Aug-23 20:05 31.920894 -107.317619 265 18006ft 272kts
20-Aug-23 20:06 31.921070 -107.406431 265 18003ft 272kts
20-Aug-23 20:07 31.921625 -107.495431 269 18278ft 262kts
20-Aug-23 20:08 31.922004 -107.577105 263 19043ft 247kts
20-Aug-23 20:09 31.921341 -107.660017 264 19216ft 261kts
20-Aug-23 20:10 31.921267 -107.746873 264 19209ft 269kts
20-Aug-23 20:11 31.925094 -107.835614 269 19214ft 274kts
20-Aug-23 20:12 31.931113 -107.925065 270 19210ft 274kts
20-Aug-23 20:13 31.937089 -108.014577 270 19198ft 276kts
20-Aug-23 20:14 31.943054 -108.105026 270 19222ft 277kts
20-Aug-23 20:15 31.948935 -108.194972 269 19229ft 276kts
20-Aug-23 20:16 31.954771 -108.285519 270 19220ft 277kts
20-Aug-23 20:17 31.960558 -108.375885 269 19222ft 277kts
20-Aug-23 20:18 31.966249 -108.466222 269 19244ft 276kts
20-Aug-23 20:19 31.971898 -108.556794 269 19245ft 277kts
20-Aug-23 20:20 31.977462 -108.646893 269 19229ft 277kts
20-Aug-23 20:21 31.982953 -108.736890 268 19257ft 275kts
20-Aug-23 20:22 31.988355 -108.826886 268 19264ft 276kts
20-Aug-23 20:23 31.993724 -108.916980 268 19217ft 277kts
20-Aug-23 20:24 31.999058 -109.007406 268 19199ft 277kts
20-Aug-23 20:25 32.004298 -109.097604 268 19207ft 277kts
20-Aug-23 20:26 32.009491 -109.188102 268 19215ft 277kts
20-Aug-23 20:27 32.014676 -109.279880 268 18940ft 285kts
20-Aug-23 20:28 32.019867 -109.372371 268 18906ft 280kts
20-Aug-23 20:29 32.024872 -109.463619 266 18914ft 278kts
20-Aug-23 20:30 32.029860 -109.554432 266 18890ft 279kts
20-Aug-23 20:31 32.034732 -109.645634 267 18878ft 278kts
20-Aug-23 20:32 32.039540 -109.736054 266 18888ft 278kts
20-Aug-23 20:33 32.044301 -109.826815 266 18869ft 277kts
20-Aug-23 20:34 32.048979 -109.917586 266 18858ft 278kts
20-Aug-23 20:35 32.053600 -110.008476 266 18865ft 277kts
20-Aug-23 20:36 32.058121 -110.098679 266 18858ft 276kts
20-Aug-23 20:37 32.062551 -110.188172 266 19024ft 273kts
20-Aug-23 20:38 32.071366 -110.263241 315 19086ft 194kts
20-Aug-23 20:39 32.121611 -110.293866 295 17651ft 234kts
20-Aug-23 20:40 32.145439 -110.362412 289 16707ft 237kts
20-Aug-23 20:41 32.169960 -110.431004 272 14875ft 219kts
20-Aug-23 20:42 32.185716 -110.498551 278 13324ft 217kts
20-Aug-23 20:43 32.202603 -110.565680 280 12102ft 217kts
20-Aug-23 20:44 32.217599 -110.635642 279 11472ft 218kts
20-Aug-23 20:45 32.235033 -110.700393 278 9846ft 197kts
20-Aug-23 20:46 32.253192 -110.759722 279 9315ft 184kts
20-Aug-23 20:47 32.269408 -110.817498 277 8113ft 185kts
20-Aug-23 20:48 32.282179 -110.872549 277 7174ft 164kts
20-Aug-23 20:49 32.297878 -110.919084 301 7274ft 155kts
20-Aug-23 20:50 32.325874 -110.967952 293 7320ft 181kts
20-Aug-23 20:51 32.347587 -111.021226 294 7312ft 193kts
20-Aug-23 20:52 32.375913 -111.078742 291 7309ft 208kts
20-Aug-23 20:53 32.346930 -111.116188 207 7309ft 178kts
20-Aug-23 20:54 32.307252 -111.152431 179 7318ft 171kts
20-Aug-23 20:55 32.275921 -111.127378 139 6776ft 119kts
20-Aug-23 20:56 32.253475 -111.097894 136 5444ft 99kts
20-Aug-23 20:57 32.229110 -111.067729 132 5110ft 170kts
20-Aug-23 20:58 32.199027 -111.036063 133 4218ft 115kts
20-Aug-23 20:59 32.177559 -111.011273 138 3656ft 105kts
20-Aug-23 21:00 32.156580 -110.986389 137 3650ft 110kts
20-Aug-23 21:01 32.133220 -110.959508 140 2956ft 120kts
20-Aug-23 21:02 32.113699 -110.936894 122 2609ft 48kts
20-Aug-23 21:03 32.112613 -110.932788 315 2617ft 24kts
20-Aug-23 21:04 32.117580 -110.937912 44 2602ft 23kts
20-Aug-23 21:05 32.119296 -110.939002 317 2598ft 0kts
20-Aug-23 21:06 32.119296 -110.939002 317 2598ft 0kts
20-Aug-23 21:07 32.119296 -110.939002 317 2598ft 0kts
20-Aug-23 21:08 32.119296 -110.939002 317 2598ft 0kts
20-Aug-23 21:09 32.119296 -110.939002 317 2598ft 0kts
20-Aug-23 21:10 32.119296 -110.939002 317 2598ft 0kts
20-Aug-23 21:11 32.119296 -110.939002 317 2598ft 0kts

Navigation Log

Ident Type
Flight plan parsing failed, navigation log unavailable